createdAt,value
2022-08-23T00:01:47.822Z,96911.81
2022-08-23T00:06:42.485Z,96913.00
2022-08-23T00:11:40.265Z,96909.00
2022-08-23T00:16:35.801Z,96909.66
2022-08-23T00:21:30.211Z,96915.31
2022-08-23T00:26:23.761Z,96906.66
2022-08-23T00:31:18.718Z,96909.44
2022-08-23T00:36:13.496Z,96909.13
2022-08-23T00:41:07.283Z,96909.22
2022-08-23T00:46:52.887Z,96915.97
2022-08-23T00:51:57.585Z,96917.31
2022-08-23T00:56:52.678Z,96908.28
2022-08-23T01:01:46.293Z,96909.06
2022-08-23T01:06:56.667Z,96911.56
2022-08-23T01:11:59.662Z,96916.94
2022-08-23T01:17:01.585Z,96915.91
2022-08-23T01:22:06.173Z,96906.75
2022-08-23T01:27:35.847Z,96919.16
2022-08-23T01:32:29.881Z,96921.91
2022-08-23T01:37:23.788Z,96932.19
2022-08-23T01:42:17.433Z,96935.78
2022-08-23T01:47:12.581Z,96936.09
2022-08-23T01:52:06.017Z,96934.13
2022-08-23T01:57:00.205Z,96930.41
2022-08-23T02:01:53.969Z,96926.38
2022-08-23T02:06:48.787Z,96934.59
2022-08-23T02:11:44.244Z,96937.44
2022-08-23T02:16:41.727Z,96942.22
2022-08-23T02:21:36.896Z,96951.88
2022-08-23T02:26:31.691Z,96945.66
2022-08-23T02:31:26.192Z,96945.09
2022-08-23T02:41:18.726Z,96950.78
2022-08-23T02:46:13.793Z,96956.19
2022-08-23T02:51:09.729Z,96957.06
2022-08-23T02:56:03.487Z,96959.28
2022-08-23T03:00:56.994Z,96961.81
2022-08-23T03:05:52.068Z,96959.28
2022-08-23T03:10:46.273Z,96962.31
2022-08-23T03:15:40.355Z,96969.00
2022-08-23T03:20:34.295Z,96963.34
2022-08-23T03:25:30.016Z,96973.69
2022-08-23T03:30:23.384Z,96970.97
2022-08-23T03:35:16.770Z,96973.16
2022-08-23T03:40:12.037Z,96977.69
2022-08-23T03:45:08.241Z,96988.38
2022-08-23T03:50:01.683Z,96985.56
2022-08-23T03:54:55.003Z,96991.69
2022-08-23T03:59:48.956Z,96991.06
2022-08-23T04:04:43.897Z,96995.09
2022-08-23T04:09:37.236Z,97003.41
2022-08-23T04:14:30.701Z,97005.16
2022-08-23T04:19:24.296Z,97016.19
2022-08-23T04:24:20.023Z,97018.75
2022-08-23T04:29:23.111Z,97024.03
2022-08-23T04:34:28.770Z,97023.56
2022-08-23T04:39:23.561Z,97026.28
2022-08-23T04:44:17.295Z,97024.94
2022-08-23T04:49:11.544Z,97028.81
2022-08-23T04:54:05.386Z,97032.81
2022-08-23T04:59:00.152Z,97045.81
2022-08-23T05:03:53.573Z,97031.25
2022-08-23T05:08:48.770Z,97043.78
2022-08-23T05:13:42.592Z,97040.09
2022-08-23T05:18:37.353Z,97051.19
2022-08-23T05:23:31.849Z,97043.72
2022-08-23T05:28:30.250Z,97048.31
2022-08-23T05:33:23.991Z,97046.47
2022-08-23T05:38:20.906Z,97050.50
2022-08-23T05:43:14.510Z,97051.31
2022-08-23T05:48:07.860Z,97055.88
2022-08-23T05:53:01.619Z,97055.63
2022-08-23T05:57:56.412Z,97062.28
2022-08-23T06:02:51.198Z,97063.97
2022-08-23T06:07:44.551Z,97072.31
2022-08-23T06:12:37.941Z,97079.34
2022-08-23T06:17:33.087Z,97079.41
2022-08-23T06:22:26.508Z,97080.47
2022-08-23T06:27:19.848Z,97088.47
2022-08-23T06:32:13.340Z,97092.19
2022-08-23T06:37:11.163Z,97103.22
2022-08-23T06:42:36.449Z,97101.03
2022-08-23T06:47:23.755Z,97107.16
2022-08-23T06:52:18.559Z,97104.22
2022-08-23T06:57:13.010Z,97114.19
2022-08-23T07:02:09.832Z,97104.56
2022-08-23T07:07:07.132Z,97109.88
2022-08-23T07:12:07.196Z,97110.22
2022-08-23T07:17:03.566Z,97114.41
2022-08-23T07:21:57.681Z,97115.91
2022-08-23T07:26:53.011Z,97125.81
2022-08-23T07:31:51.518Z,97123.28
2022-08-23T07:36:47.879Z,97129.13
2022-08-23T07:41:41.595Z,97124.13
2022-08-23T07:46:36.320Z,97142.28
2022-08-23T07:51:33.918Z,97140.75
2022-08-23T07:56:27.239Z,97147.91
2022-08-23T08:01:24.108Z,97144.88
2022-08-23T08:06:22.646Z,97141.47
2022-08-23T08:11:22.112Z,97148.28
2022-08-23T08:16:27.254Z,97153.78
2022-08-23T08:21:20.660Z,97153.94
2022-08-23T08:26:14.373Z,97152.94
2022-08-23T08:31:10.734Z,97145.03
2022-08-23T08:36:05.295Z,97148.47
2022-08-23T08:41:10.814Z,97147.00
2022-08-23T08:46:14.234Z,97143.50
2022-08-23T08:51:27.161Z,97150.38
2022-08-23T08:56:32.405Z,97153.69
2022-08-23T09:01:42.455Z,97156.19
2022-08-23T09:07:04.324Z,97168.53
2022-08-23T09:12:17.441Z,97159.03
2022-08-23T09:17:29.864Z,97159.88
2022-08-23T09:22:54.695Z,97158.38
2022-08-23T09:28:05.256Z,97162.03
2022-08-23T09:33:25.985Z,97158.53
2022-08-23T09:38:43.840Z,97153.78
2022-08-23T09:44:02.869Z,97163.25
2022-08-23T09:49:46.336Z,97153.03
2022-08-23T09:55:22.498Z,97146.72
2022-08-23T10:01:01.257Z,97145.81
2022-08-23T10:11:47.190Z,97143.63
2022-08-23T10:29:53.652Z,97103.34
2022-08-23T10:35:26.204Z,97125.44
2022-08-23T10:40:29.863Z,97095.13
2022-08-23T10:45:30.706Z,97103.41
2022-08-23T10:50:24.508Z,97082.75
2022-08-23T10:55:39.248Z,97098.03
2022-08-23T11:00:36.050Z,97069.13
2022-08-23T11:05:35.431Z,97054.69
2022-08-23T11:10:56.147Z,97059.69
2022-08-23T11:16:00.787Z,97043.59
2022-08-23T11:21:07.670Z,97039.25
2022-08-23T11:26:03.934Z,97055.38
2022-08-23T11:31:21.192Z,97056.41
2022-08-23T11:36:23.280Z,97059.94
2022-08-23T11:41:33.360Z,97062.63
2022-08-23T11:46:52.281Z,97056.63
2022-08-23T11:52:21.235Z,97045.09
2022-08-23T11:57:58.423Z,97030.84
2022-08-23T12:03:46.038Z,97045.28
2022-08-23T12:09:25.845Z,97028.94
2022-08-23T12:15:12.029Z,97020.50
2022-08-23T12:20:29.050Z,97026.88
2022-08-23T12:25:42.580Z,97035.16
2022-08-23T12:31:08.233Z,97035.16
2022-08-23T12:38:12.377Z,97040.94
2022-08-23T12:42:20.053Z,97032.69
2022-08-23T12:48:12.017Z,97031.44
2022-08-23T12:59:41.110Z,97033.72
2022-08-23T13:04:43.201Z,97036.59
2022-08-23T13:10:34.157Z,97036.00
2022-08-23T13:15:58.355Z,97032.47
2022-08-23T13:21:42.353Z,97023.19
2022-08-23T13:26:58.581Z,97015.31
2022-08-23T13:32:03.109Z,97010.19
2022-08-23T13:37:05.376Z,97011.38
2022-08-23T13:42:26.870Z,97000.63
2022-08-23T13:48:28.519Z,96997.13
2022-08-23T13:53:47.191Z,97013.69
2022-08-23T13:58:44.370Z,97004.38
2022-08-23T14:03:49.696Z,97002.53
2022-08-23T14:14:58.351Z,97007.72
2022-08-23T14:21:57.524Z,97004.19
2022-08-23T14:27:29.961Z,96990.78
2022-08-23T14:32:25.663Z,96977.34
2022-08-23T14:49:39.425Z,96979.41
2022-08-23T15:14:24.688Z,96980.03
2022-08-23T15:27:10.879Z,96973.44
2022-08-23T15:32:06.497Z,96981.28
2022-08-23T15:37:11.244Z,96958.56
2022-08-23T15:43:07.685Z,96970.53
2022-08-23T15:48:17.108Z,96957.97
2022-08-23T15:53:16.933Z,96980.66
2022-08-23T15:58:18.133Z,96952.56
2022-08-23T16:03:24.217Z,96963.72
2022-08-23T16:08:24.751Z,96949.47
2022-08-23T16:13:18.320Z,96945.56
2022-08-23T16:18:16.068Z,96940.19
2022-08-23T16:23:18.663Z,96950.53
2022-08-23T16:28:12.111Z,96952.78
2022-08-23T16:33:07.184Z,96941.63
2022-08-23T16:38:02.316Z,96950.31
2022-08-23T16:43:08.087Z,96943.31
2022-08-23T16:48:01.991Z,96958.97
2022-08-23T16:58:04.648Z,96963.69
2022-08-23T17:02:59.248Z,96981.00
2022-08-23T17:07:54.189Z,96972.13
2022-08-23T17:12:54.236Z,96972.09
2022-08-23T17:17:49.490Z,96975.81
2022-08-23T17:22:43.195Z,96978.47
2022-08-23T17:27:36.838Z,96993.28
2022-08-23T17:32:30.425Z,96997.34
2022-08-23T17:37:25.166Z,97001.66
2022-08-23T17:42:19.028Z,97004.47
2022-08-23T17:47:16.741Z,97024.59
2022-08-23T17:52:11.579Z,97022.06
2022-08-23T17:57:06.754Z,97030.03
2022-08-23T18:03:12.983Z,97039.91
2022-08-23T18:07:53.499Z,97058.53
2022-08-23T18:12:48.418Z,97062.47
2022-08-23T18:17:42.751Z,97061.94
2022-08-23T18:22:47.288Z,97069.06
2022-08-23T18:28:36.935Z,97081.16
2022-08-23T18:33:47.031Z,97076.78
2022-08-23T18:40:23.016Z,97082.97
2022-08-23T18:45:25.627Z,97086.09
2022-08-23T19:03:57.596Z,97105.53
2022-08-23T20:00:08.465Z,97161.72
2022-08-23T20:05:39.422Z,97165.38
2022-08-23T20:11:18.102Z,97170.34
2022-08-23T20:16:13.305Z,97167.19
2022-08-23T20:21:07.714Z,97178.50
2022-08-23T20:26:01.485Z,97178.75
2022-08-23T20:30:55.062Z,97181.63
2022-08-23T20:35:49.985Z,97182.09
2022-08-23T20:40:45.218Z,97183.09
2022-08-23T20:45:38.561Z,97190.75
2022-08-23T20:50:35.010Z,97191.56
2022-08-23T20:55:29.792Z,97193.72
2022-08-23T21:00:23.462Z,97189.94
2022-08-23T21:05:17.116Z,97190.66
2022-08-23T21:10:11.206Z,97194.47
2022-08-23T21:15:10.894Z,97189.97
2022-08-23T21:20:08.022Z,97184.16
2022-08-23T21:25:02.069Z,97194.66
2022-08-23T21:29:55.727Z,97185.63
2022-08-23T21:34:50.641Z,97194.91
2022-08-23T21:39:44.103Z,97191.94
2022-08-23T21:44:39.763Z,97195.44
2022-08-23T21:49:35.222Z,97188.28
2022-08-23T21:54:29.952Z,97189.28
2022-08-23T21:59:23.491Z,97188.78
2022-08-23T22:04:17.801Z,97190.22
2022-08-23T22:09:15.943Z,97184.72
2022-08-23T22:14:14.457Z,97190.50
2022-08-23T22:19:08.103Z,97194.00
2022-08-23T22:24:01.441Z,97184.00
2022-08-23T22:28:54.927Z,97180.22
2022-08-23T22:33:49.674Z,97176.69
2022-08-23T22:38:44.412Z,97177.34
2022-08-23T22:43:38.051Z,97174.47
2022-08-23T22:48:35.129Z,97178.72
2022-08-23T22:53:30.011Z,97172.91
2022-08-23T22:58:23.398Z,97179.78
2022-08-23T23:03:16.771Z,97171.69
2022-08-23T23:08:29.398Z,97165.66
2022-08-23T23:13:28.689Z,97162.88
2022-08-23T23:24:44.393Z,97158.13
2022-08-23T23:29:38.492Z,97157.38
2022-08-23T23:34:32.083Z,97156.81
2022-08-23T23:40:34.094Z,97151.97
2022-08-23T23:45:55.784Z,97155.81
2022-08-23T23:50:49.313Z,97155.06
2022-08-23T23:57:10.172Z,97149.59
